sensor_id;sensor_type;location;lat;lon;timestamp;P1;durP1;ratioP1;P2;durP2;ratioP2
77524;SDS011;66638;50.050;21.124;2023-04-25T00:00:37;6.40;;;4.90;;
77524;SDS011;66638;50.050;21.124;2023-04-25T00:03:24;7.40;;;5.40;;
77524;SDS011;66638;50.050;21.124;2023-04-25T00:06:12;7.20;;;5.40;;
77524;SDS011;66638;50.050;21.124;2023-04-25T00:08:59;6.70;;;5.10;;
77524;SDS011;66638;50.050;21.124;2023-04-25T00:11:46;7.50;;;5.30;;
77524;SDS011;66638;50.050;21.124;2023-04-25T00:14:34;8.70;;;5.80;;
77524;SDS011;66638;50.050;21.124;2023-04-25T00:17:22;6.20;;;4.90;;
77524;SDS011;66638;50.050;21.124;2023-04-25T00:20:11;7.10;;;5.10;;
77524;SDS011;66638;50.050;21.124;2023-04-25T00:22:58;6.10;;;4.70;;
77524;SDS011;66638;50.050;21.124;2023-04-25T00:25:47;7.00;;;5.50;;
77524;SDS011;66638;50.050;21.124;2023-04-25T00:28:36;7.80;;;5.60;;
77524;SDS011;66638;50.050;21.124;2023-04-25T00:31:23;7.60;;;5.80;;
77524;SDS011;66638;50.050;21.124;2023-04-25T00:34:10;7.30;;;5.60;;
77524;SDS011;66638;50.050;21.124;2023-04-25T00:36:57;7.20;;;5.60;;
77524;SDS011;66638;50.050;21.124;2023-04-25T00:39:45;7.30;;;6.00;;
77524;SDS011;66638;50.050;21.124;2023-04-25T00:42:32;8.10;;;5.80;;
77524;SDS011;66638;50.050;21.124;2023-04-25T00:45:20;6.80;;;5.40;;
77524;SDS011;66638;50.050;21.124;2023-04-25T00:48:07;8.30;;;6.30;;
77524;SDS011;66638;50.050;21.124;2023-04-25T00:50:57;9.60;;;6.50;;
77524;SDS011;66638;50.050;21.124;2023-04-25T00:53:45;8.80;;;7.30;;
77524;SDS011;66638;50.050;21.124;2023-04-25T00:56:32;8.10;;;6.10;;
77524;SDS011;66638;50.050;21.124;2023-04-25T00:59:20;9.20;;;6.70;;
77524;SDS011;66638;50.050;21.124;2023-04-25T01:02:07;7.80;;;6.40;;
77524;SDS011;66638;50.050;21.124;2023-04-25T01:04:56;10.90;;;6.60;;
77524;SDS011;66638;50.050;21.124;2023-04-25T01:07:43;11.60;;;7.60;;
77524;SDS011;66638;50.050;21.124;2023-04-25T01:10:30;12.30;;;8.90;;
77524;SDS011;66638;50.050;21.124;2023-04-25T01:13:18;13.30;;;9.40;;
77524;SDS011;66638;50.050;21.124;2023-04-25T01:16:05;13.10;;;10.30;;
77524;SDS011;66638;50.050;21.124;2023-04-25T01:18:53;16.90;;;11.20;;
77524;SDS011;66638;50.050;21.124;2023-04-25T01:21:41;14.10;;;11.20;;
77524;SDS011;66638;50.050;21.124;2023-04-25T01:24:29;15.10;;;12.00;;
77524;SDS011;66638;50.050;21.124;2023-04-25T01:27:17;14.50;;;11.30;;
77524;SDS011;66638;50.050;21.124;2023-04-25T01:30:05;16.00;;;10.70;;
77524;SDS011;66638;50.050;21.124;2023-04-25T01:32:56;15.20;;;11.10;;
77524;SDS011;66638;50.050;21.124;2023-04-25T01:35:44;14.10;;;10.50;;
77524;SDS011;66638;50.050;21.124;2023-04-25T01:38:31;14.50;;;10.70;;
77524;SDS011;66638;50.050;21.124;2023-04-25T01:41:20;15.00;;;11.20;;
77524;SDS011;66638;50.050;21.124;2023-04-25T01:44:10;19.20;;;12.20;;
77524;SDS011;66638;50.050;21.124;2023-04-25T01:46:58;13.10;;;10.70;;
77524;SDS011;66638;50.050;21.124;2023-04-25T01:49:46;16.10;;;12.00;;
77524;SDS011;66638;50.050;21.124;2023-04-25T01:52:33;16.10;;;11.60;;
77524;SDS011;66638;50.050;21.124;2023-04-25T01:55:22;17.00;;;12.60;;
77524;SDS011;66638;50.050;21.124;2023-04-25T01:58:17;20.60;;;15.00;;
77524;SDS011;66638;50.050;21.124;2023-04-25T02:01:24;19.40;;;14.90;;
77524;SDS011;66638;50.050;21.124;2023-04-25T02:04:22;18.50;;;13.00;;
77524;SDS011;66638;50.050;21.124;2023-04-25T02:07:09;17.20;;;12.80;;
77524;SDS011;66638;50.050;21.124;2023-04-25T02:10:08;18.50;;;12.40;;
77524;SDS011;66638;50.050;21.124;2023-04-25T02:13:02;19.10;;;13.50;;
77524;SDS011;66638;50.050;21.124;2023-04-25T02:16:01;21.00;;;13.70;;
77524;SDS011;66638;50.050;21.124;2023-04-25T02:18:50;21.90;;;14.50;;
77524;SDS011;66638;50.050;21.124;2023-04-25T02:21:39;22.60;;;14.50;;
77524;SDS011;66638;50.050;21.124;2023-04-25T02:24:27;18.70;;;14.30;;
77524;SDS011;66638;50.050;21.124;2023-04-25T02:27:16;20.10;;;14.50;;
77524;SDS011;66638;50.050;21.124;2023-04-25T02:30:04;21.00;;;15.80;;
77524;SDS011;66638;50.050;21.124;2023-04-25T02:32:54;22.90;;;14.80;;
77524;SDS011;66638;50.050;21.124;2023-04-25T02:35:40;22.70;;;16.60;;
77524;SDS011;66638;50.050;21.124;2023-04-25T02:38:28;24.10;;;15.90;;
77524;SDS011;66638;50.050;21.124;2023-04-25T02:41:17;26.10;;;17.40;;
77524;SDS011;66638;50.050;21.124;2023-04-25T02:44:04;25.80;;;18.60;;
77524;SDS011;66638;50.050;21.124;2023-04-25T02:46:52;26.50;;;18.70;;
77524;SDS011;66638;50.050;21.124;2023-04-25T02:49:39;28.20;;;18.60;;
77524;SDS011;66638;50.050;21.124;2023-04-25T02:52:26;28.60;;;19.90;;
77524;SDS011;66638;50.050;21.124;2023-04-25T02:55:19;29.70;;;21.10;;
77524;SDS011;66638;50.050;21.124;2023-04-25T02:58:07;31.70;;;20.70;;
77524;SDS011;66638;50.050;21.124;2023-04-25T03:01:01;27.30;;;19.20;;
77524;SDS011;66638;50.050;21.124;2023-04-25T03:03:48;26.20;;;19.10;;
77524;SDS011;66638;50.050;21.124;2023-04-25T03:06:35;26.50;;;19.10;;
77524;SDS011;66638;50.050;21.124;2023-04-25T03:09:22;25.80;;;19.70;;
77524;SDS011;66638;50.050;21.124;2023-04-25T03:12:09;24.70;;;17.90;;
77524;SDS011;66638;50.050;21.124;2023-04-25T03:14:57;24.50;;;17.50;;
77524;SDS011;66638;50.050;21.124;2023-04-25T03:17:45;25.10;;;18.20;;
77524;SDS011;66638;50.050;21.124;2023-04-25T03:20:32;24.70;;;18.10;;
77524;SDS011;66638;50.050;21.124;2023-04-25T03:23:19;23.80;;;18.50;;
77524;SDS011;66638;50.050;21.124;2023-04-25T03:26:06;21.90;;;16.50;;
77524;SDS011;66638;50.050;21.124;2023-04-25T03:28:54;23.30;;;18.40;;
77524;SDS011;66638;50.050;21.124;2023-04-25T03:31:41;25.10;;;17.40;;
77524;SDS011;66638;50.050;21.124;2023-04-25T03:34:29;26.90;;;18.50;;
77524;SDS011;66638;50.050;21.124;2023-04-25T03:37:17;24.00;;;17.90;;
77524;SDS011;66638;50.050;21.124;2023-04-25T03:40:05;24.70;;;19.10;;
77524;SDS011;66638;50.050;21.124;2023-04-25T03:43:12;24.50;;;18.60;;
77524;SDS011;66638;50.050;21.124;2023-04-25T03:46:02;25.10;;;18.00;;
77524;SDS011;66638;50.050;21.124;2023-04-25T03:48:50;24.50;;;17.10;;
77524;SDS011;66638;50.050;21.124;2023-04-25T03:51:42;24.00;;;17.40;;
77524;SDS011;66638;50.050;21.124;2023-04-25T03:54:29;21.50;;;15.20;;
77524;SDS011;66638;50.050;21.124;2023-04-25T03:57:23;19.30;;;14.60;;
77524;SDS011;66638;50.050;21.124;2023-04-25T04:00:11;18.00;;;14.10;;
77524;SDS011;66638;50.050;21.124;2023-04-25T04:03:01;13.50;;;9.70;;
77524;SDS011;66638;50.050;21.124;2023-04-25T04:05:48;10.60;;;7.80;;
77524;SDS011;66638;50.050;21.124;2023-04-25T04:08:36;9.00;;;6.60;;
77524;SDS011;66638;50.050;21.124;2023-04-25T04:11:24;9.00;;;6.90;;
77524;SDS011;66638;50.050;21.124;2023-04-25T04:14:11;6.90;;;5.90;;
77524;SDS011;66638;50.050;21.124;2023-04-25T04:17:02;7.80;;;6.30;;
77524;SDS011;66638;50.050;21.124;2023-04-25T04:19:50;9.70;;;7.20;;
77524;SDS011;66638;50.050;21.124;2023-04-25T04:22:41;6.00;;;4.70;;
77524;SDS011;66638;50.050;21.124;2023-04-25T04:25:31;5.00;;;4.00;;
77524;SDS011;66638;50.050;21.124;2023-04-25T04:28:38;4.80;;;4.00;;
77524;SDS011;66638;50.050;21.124;2023-04-25T04:31:38;4.90;;;3.60;;
77524;SDS011;66638;50.050;21.124;2023-04-25T04:34:25;5.80;;;3.60;;
77524;SDS011;66638;50.050;21.124;2023-04-25T04:37:14;5.10;;;3.70;;
77524;SDS011;66638;50.050;21.124;2023-04-25T04:40:03;4.60;;;2.80;;
77524;SDS011;66638;50.050;21.124;2023-04-25T04:43:06;4.30;;;3.10;;
77524;SDS011;66638;50.050;21.124;2023-04-25T04:46:15;4.80;;;3.10;;
77524;SDS011;66638;50.050;21.124;2023-04-25T04:49:18;3.40;;;2.70;;
77524;SDS011;66638;50.050;21.124;2023-04-25T04:52:17;3.90;;;3.00;;
77524;SDS011;66638;50.050;21.124;2023-04-25T04:55:24;3.90;;;2.60;;
77524;SDS011;66638;50.050;21.124;2023-04-25T04:58:31;4.20;;;2.60;;
77524;SDS011;66638;50.050;21.124;2023-04-25T05:01:38;4.70;;;2.90;;
77524;SDS011;66638;50.050;21.124;2023-04-25T05:04:46;3.90;;;3.20;;
77524;SDS011;66638;50.050;21.124;2023-04-25T05:07:53;4.00;;;3.10;;
77524;SDS011;66638;50.050;21.124;2023-04-25T05:11:00;4.00;;;3.10;;
77524;SDS011;66638;50.050;21.124;2023-04-25T05:13:57;3.80;;;2.70;;
77524;SDS011;66638;50.050;21.124;2023-04-25T05:17:04;3.50;;;2.60;;
77524;SDS011;66638;50.050;21.124;2023-04-25T05:20:12;4.10;;;3.00;;
77524;SDS011;66638;50.050;21.124;2023-04-25T05:23:20;5.70;;;3.40;;
77524;SDS011;66638;50.050;21.124;2023-04-25T05:26:17;4.00;;;3.20;;
77524;SDS011;66638;50.050;21.124;2023-04-25T05:29:13;3.70;;;3.00;;
77524;SDS011;66638;50.050;21.124;2023-04-25T05:32:20;4.90;;;3.40;;
77524;SDS011;66638;50.050;21.124;2023-04-25T05:35:09;5.90;;;3.60;;
77524;SDS011;66638;50.050;21.124;2023-04-25T05:38:02;4.40;;;3.50;;
77524;SDS011;66638;50.050;21.124;2023-04-25T05:41:09;4.20;;;3.20;;
77524;SDS011;66638;50.050;21.124;2023-04-25T05:44:19;5.40;;;3.90;;
77524;SDS011;66638;50.050;21.124;2023-04-25T05:47:27;6.70;;;4.10;;
77524;SDS011;66638;50.050;21.124;2023-04-25T05:50:24;4.80;;;3.80;;
77524;SDS011;66638;50.050;21.124;2023-04-25T05:53:20;7.60;;;4.20;;
77524;SDS011;66638;50.050;21.124;2023-04-25T05:56:15;9.10;;;4.80;;
77524;SDS011;66638;50.050;21.124;2023-04-25T05:59:02;5.80;;;4.60;;
77524;SDS011;66638;50.050;21.124;2023-04-25T06:01:50;6.10;;;4.10;;
77524;SDS011;66638;50.050;21.124;2023-04-25T06:04:39;5.70;;;4.40;;
77524;SDS011;66638;50.050;21.124;2023-04-25T06:07:26;6.50;;;4.80;;
77524;SDS011;66638;50.050;21.124;2023-04-25T06:10:14;8.10;;;5.80;;
77524;SDS011;66638;50.050;21.124;2023-04-25T06:13:03;9.80;;;4.90;;
77524;SDS011;66638;50.050;21.124;2023-04-25T06:15:52;5.20;;;4.20;;
77524;SDS011;66638;50.050;21.124;2023-04-25T06:21:26;5.50;;;4.10;;
77524;SDS011;66638;50.050;21.124;2023-04-25T06:24:14;6.00;;;4.00;;
77524;SDS011;66638;50.050;21.124;2023-04-25T06:27:01;6.00;;;4.20;;
77524;SDS011;66638;50.050;21.124;2023-04-25T06:29:49;6.10;;;4.30;;
77524;SDS011;66638;50.050;21.124;2023-04-25T06:32:37;6.00;;;4.00;;
77524;SDS011;66638;50.050;21.124;2023-04-25T06:35:25;6.00;;;3.60;;
77524;SDS011;66638;50.050;21.124;2023-04-25T06:38:13;5.20;;;3.40;;
77524;SDS011;66638;50.050;21.124;2023-04-25T06:41:01;7.20;;;4.00;;
77524;SDS011;66638;50.050;21.124;2023-04-25T06:43:50;5.90;;;4.00;;
77524;SDS011;66638;50.050;21.124;2023-04-25T06:46:58;6.40;;;4.10;;
77524;SDS011;66638;50.050;21.124;2023-04-25T06:49:45;6.20;;;4.50;;
77524;SDS011;66638;50.050;21.124;2023-04-25T06:52:32;6.90;;;5.10;;
77524;SDS011;66638;50.050;21.124;2023-04-25T06:55:20;6.50;;;4.30;;
77524;SDS011;66638;50.050;21.124;2023-04-25T06:58:21;6.10;;;4.00;;
77524;SDS011;66638;50.050;21.124;2023-04-25T07:01:15;6.90;;;4.10;;
77524;SDS011;66638;50.050;21.124;2023-04-25T07:04:02;6.60;;;4.00;;
77524;SDS011;66638;50.050;21.124;2023-04-25T07:06:50;4.80;;;4.00;;
77524;SDS011;66638;50.050;21.124;2023-04-25T07:09:41;6.60;;;4.10;;
77524;SDS011;66638;50.050;21.124;2023-04-25T07:12:28;6.00;;;4.20;;
77524;SDS011;66638;50.050;21.124;2023-04-25T07:15:16;5.70;;;3.80;;
77524;SDS011;66638;50.050;21.124;2023-04-25T07:18:04;4.70;;;3.70;;
77524;SDS011;66638;50.050;21.124;2023-04-25T07:20:52;5.40;;;3.30;;
77524;SDS011;66638;50.050;21.124;2023-04-25T07:23:40;5.60;;;3.40;;
77524;SDS011;66638;50.050;21.124;2023-04-25T07:26:31;5.60;;;4.00;;
77524;SDS011;66638;50.050;21.124;2023-04-25T07:29:38;4.70;;;3.40;;
77524;SDS011;66638;50.050;21.124;2023-04-25T07:32:26;5.40;;;3.70;;
77524;SDS011;66638;50.050;21.124;2023-04-25T07:35:14;5.20;;;3.60;;
77524;SDS011;66638;50.050;21.124;2023-04-25T07:38:02;5.40;;;3.90;;
77524;SDS011;66638;50.050;21.124;2023-04-25T07:40:50;5.20;;;3.60;;
77524;SDS011;66638;50.050;21.124;2023-04-25T07:43:37;5.50;;;3.90;;
77524;SDS011;66638;50.050;21.124;2023-04-25T07:46:27;6.20;;;3.90;;
77524;SDS011;66638;50.050;21.124;2023-04-25T07:49:15;6.50;;;4.10;;
77524;SDS011;66638;50.050;21.124;2023-04-25T07:52:04;5.90;;;3.90;;
77524;SDS011;66638;50.050;21.124;2023-04-25T07:54:53;6.10;;;3.70;;
77524;SDS011;66638;50.050;21.124;2023-04-25T08:00:34;7.20;;;4.20;;
77524;SDS011;66638;50.050;21.124;2023-04-25T08:03:39;6.70;;;4.30;;
77524;SDS011;66638;50.050;21.124;2023-04-25T08:06:31;6.60;;;4.40;;
77524;SDS011;66638;50.050;21.124;2023-04-25T08:09:25;7.80;;;4.30;;
77524;SDS011;66638;50.050;21.124;2023-04-25T08:12:12;4.60;;;4.10;;
77524;SDS011;66638;50.050;21.124;2023-04-25T08:15:01;6.50;;;4.90;;
77524;SDS011;66638;50.050;21.124;2023-04-25T08:17:52;6.30;;;4.30;;
77524;SDS011;66638;50.050;21.124;2023-04-25T08:20:40;5.30;;;4.20;;
77524;SDS011;66638;50.050;21.124;2023-04-25T08:23:27;6.70;;;4.60;;
77524;SDS011;66638;50.050;21.124;2023-04-25T08:26:24;6.40;;;4.40;;
77524;SDS011;66638;50.050;21.124;2023-04-25T08:29:13;5.80;;;4.40;;
77524;SDS011;66638;50.050;21.124;2023-04-25T08:32:01;4.90;;;3.90;;
77524;SDS011;66638;50.050;21.124;2023-04-25T08:34:49;6.10;;;4.00;;
77524;SDS011;66638;50.050;21.124;2023-04-25T08:37:37;5.50;;;4.40;;
77524;SDS011;66638;50.050;21.124;2023-04-25T08:40:31;7.30;;;4.50;;
77524;SDS011;66638;50.050;21.124;2023-04-25T08:43:26;6.70;;;4.10;;
77524;SDS011;66638;50.050;21.124;2023-04-25T08:46:19;4.50;;;3.40;;
77524;SDS011;66638;50.050;21.124;2023-04-25T08:49:26;25.60;;;22.50;;
77524;SDS011;66638;50.050;21.124;2023-04-25T08:52:14;5.20;;;3.90;;
77524;SDS011;66638;50.050;21.124;2023-04-25T08:55:02;4.60;;;3.30;;
77524;SDS011;66638;50.050;21.124;2023-04-25T08:57:52;11.00;;;8.80;;
77524;SDS011;66638;50.050;21.124;2023-04-25T09:00:40;5.10;;;3.40;;
77524;SDS011;66638;50.050;21.124;2023-04-25T09:03:28;6.10;;;4.90;;
77524;SDS011;66638;50.050;21.124;2023-04-25T09:06:16;4.00;;;2.90;;
77524;SDS011;66638;50.050;21.124;2023-04-25T09:09:05;4.00;;;3.20;;
77524;SDS011;66638;50.050;21.124;2023-04-25T09:11:54;4.70;;;3.10;;
77524;SDS011;66638;50.050;21.124;2023-04-25T09:14:46;7.30;;;4.50;;
77524;SDS011;66638;50.050;21.124;2023-04-25T09:18:06;6.10;;;3.20;;
77524;SDS011;66638;50.050;21.124;2023-04-25T09:20:57;4.60;;;3.50;;
77524;SDS011;66638;50.050;21.124;2023-04-25T09:23:53;5.80;;;3.80;;
77524;SDS011;66638;50.050;21.124;2023-04-25T09:26:41;6.20;;;4.00;;
77524;SDS011;66638;50.050;21.124;2023-04-25T09:29:29;5.50;;;4.70;;
77524;SDS011;66638;50.050;21.124;2023-04-25T09:32:19;6.80;;;5.40;;
77524;SDS011;66638;50.050;21.124;2023-04-25T09:35:08;17.10;;;6.00;;
77524;SDS011;66638;50.050;21.124;2023-04-25T09:37:57;5.50;;;5.00;;
77524;SDS011;66638;50.050;21.124;2023-04-25T09:41:04;9.50;;;3.40;;
77524;SDS011;66638;50.050;21.124;2023-04-25T09:43:59;6.20;;;5.60;;
77524;SDS011;66638;50.050;21.124;2023-04-25T09:46:51;10.40;;;3.50;;
77524;SDS011;66638;50.050;21.124;2023-04-25T09:49:42;7.90;;;3.50;;
77524;SDS011;66638;50.050;21.124;2023-04-25T09:52:33;14.70;;;7.30;;
77524;SDS011;66638;50.050;21.124;2023-04-25T09:55:30;122.70;;;54.30;;
77524;SDS011;66638;50.050;21.124;2023-04-25T09:58:20;26.90;;;10.40;;
77524;SDS011;66638;50.050;21.124;2023-04-25T10:01:08;12.40;;;8.30;;
77524;SDS011;66638;50.050;21.124;2023-04-25T10:04:03;5.20;;;4.20;;
77524;SDS011;66638;50.050;21.124;2023-04-25T10:07:01;6.60;;;3.70;;
77524;SDS011;66638;50.050;21.124;2023-04-25T10:09:50;7.10;;;3.60;;
77524;SDS011;66638;50.050;21.124;2023-04-25T10:12:42;5.90;;;4.60;;
77524;SDS011;66638;50.050;21.124;2023-04-25T10:15:32;4.60;;;3.70;;
77524;SDS011;66638;50.050;21.124;2023-04-25T10:18:22;3.90;;;2.80;;
77524;SDS011;66638;50.050;21.124;2023-04-25T10:21:09;8.70;;;5.10;;
77524;SDS011;66638;50.050;21.124;2023-04-25T10:23:57;10.00;;;7.20;;
77524;SDS011;66638;50.050;21.124;2023-04-25T10:26:45;4.60;;;3.50;;
77524;SDS011;66638;50.050;21.124;2023-04-25T10:29:34;5.40;;;2.80;;
77524;SDS011;66638;50.050;21.124;2023-04-25T10:32:22;5.00;;;2.60;;
77524;SDS011;66638;50.050;21.124;2023-04-25T10:35:13;3.90;;;2.90;;
77524;SDS011;66638;50.050;21.124;2023-04-25T10:38:03;6.00;;;3.70;;
77524;SDS011;66638;50.050;21.124;2023-04-25T10:43:59;3.80;;;2.50;;
77524;SDS011;66638;50.050;21.124;2023-04-25T10:46:50;5.20;;;2.70;;
77524;SDS011;66638;50.050;21.124;2023-04-25T10:49:41;5.40;;;2.30;;
77524;SDS011;66638;50.050;21.124;2023-04-25T10:52:28;3.80;;;2.80;;
77524;SDS011;66638;50.050;21.124;2023-04-25T10:55:16;3.70;;;2.50;;
77524;SDS011;66638;50.050;21.124;2023-04-25T10:58:03;4.30;;;2.90;;
77524;SDS011;66638;50.050;21.124;2023-04-25T11:00:50;3.80;;;2.60;;
77524;SDS011;66638;50.050;21.124;2023-04-25T11:03:41;3.70;;;2.70;;
77524;SDS011;66638;50.050;21.124;2023-04-25T11:09:57;3.40;;;2.20;;
77524;SDS011;66638;50.050;21.124;2023-04-25T11:12:44;2.90;;;2.00;;
77524;SDS011;66638;50.050;21.124;2023-04-25T11:15:33;4.30;;;2.40;;
77524;SDS011;66638;50.050;21.124;2023-04-25T11:18:20;2.70;;;1.90;;
77524;SDS011;66638;50.050;21.124;2023-04-25T11:21:08;3.50;;;2.40;;
77524;SDS011;66638;50.050;21.124;2023-04-25T11:23:56;4.30;;;2.40;;
77524;SDS011;66638;50.050;21.124;2023-04-25T11:26:46;4.90;;;2.40;;
77524;SDS011;66638;50.050;21.124;2023-04-25T11:29:35;3.70;;;2.20;;
77524;SDS011;66638;50.050;21.124;2023-04-25T11:32:23;4.10;;;2.20;;
77524;SDS011;66638;50.050;21.124;2023-04-25T11:35:10;3.40;;;1.80;;
77524;SDS011;66638;50.050;21.124;2023-04-25T11:37:58;5.70;;;2.20;;
77524;SDS011;66638;50.050;21.124;2023-04-25T11:40:49;4.10;;;1.80;;
77524;SDS011;66638;50.050;21.124;2023-04-25T11:43:39;3.10;;;1.90;;
77524;SDS011;66638;50.050;21.124;2023-04-25T11:46:27;3.90;;;2.20;;
77524;SDS011;66638;50.050;21.124;2023-04-25T11:49:14;3.20;;;1.90;;
77524;SDS011;66638;50.050;21.124;2023-04-25T11:52:02;3.60;;;2.00;;
77524;SDS011;66638;50.050;21.124;2023-04-25T11:54:49;2.90;;;2.10;;
77524;SDS011;66638;50.050;21.124;2023-04-25T11:57:40;3.60;;;2.00;;
77524;SDS011;66638;50.050;21.124;2023-04-25T12:00:28;3.10;;;2.10;;
77524;SDS011;66638;50.050;21.124;2023-04-25T12:03:15;3.20;;;2.00;;
77524;SDS011;66638;50.050;21.124;2023-04-25T12:06:04;5.40;;;2.40;;
77524;SDS011;66638;50.050;21.124;2023-04-25T12:08:58;3.00;;;2.10;;
77524;SDS011;66638;50.050;21.124;2023-04-25T12:11:53;3.50;;;2.20;;
77524;SDS011;66638;50.050;21.124;2023-04-25T12:14:45;7.50;;;2.60;;
77524;SDS011;66638;50.050;21.124;2023-04-25T12:17:35;4.30;;;2.70;;
77524;SDS011;66638;50.050;21.124;2023-04-25T12:20:24;4.50;;;2.80;;
77524;SDS011;66638;50.050;21.124;2023-04-25T12:23:12;3.90;;;2.60;;
77524;SDS011;66638;50.050;21.124;2023-04-25T12:25:59;4.80;;;3.30;;
77524;SDS011;66638;50.050;21.124;2023-04-25T12:28:49;3.80;;;2.90;;
77524;SDS011;66638;50.050;21.124;2023-04-25T12:31:37;3.90;;;2.70;;
77524;SDS011;66638;50.050;21.124;2023-04-25T12:34:24;8.80;;;3.60;;
77524;SDS011;66638;50.050;21.124;2023-04-25T12:37:12;4.80;;;3.30;;
77524;SDS011;66638;50.050;21.124;2023-04-25T12:40:00;5.00;;;3.20;;
77524;SDS011;66638;50.050;21.124;2023-04-25T12:42:47;3.90;;;3.40;;
77524;SDS011;66638;50.050;21.124;2023-04-25T12:45:34;4.50;;;3.20;;
77524;SDS011;66638;50.050;21.124;2023-04-25T12:48:22;6.30;;;3.80;;
77524;SDS011;66638;50.050;21.124;2023-04-25T12:51:10;7.30;;;4.00;;
77524;SDS011;66638;50.050;21.124;2023-04-25T12:53:57;5.20;;;3.30;;
77524;SDS011;66638;50.050;21.124;2023-04-25T12:56:44;4.10;;;3.70;;
77524;SDS011;66638;50.050;21.124;2023-04-25T12:59:33;5.10;;;3.50;;
77524;SDS011;66638;50.050;21.124;2023-04-25T13:02:20;7.40;;;4.30;;
77524;SDS011;66638;50.050;21.124;2023-04-25T13:05:07;5.40;;;4.00;;
77524;SDS011;66638;50.050;21.124;2023-04-25T13:07:54;6.10;;;4.10;;
77524;SDS011;66638;50.050;21.124;2023-04-25T13:10:41;5.60;;;4.20;;
77524;SDS011;66638;50.050;21.124;2023-04-25T13:13:30;6.70;;;4.80;;
77524;SDS011;66638;50.050;21.124;2023-04-25T13:16:18;5.00;;;4.40;;
77524;SDS011;66638;50.050;21.124;2023-04-25T13:19:07;5.50;;;3.90;;
77524;SDS011;66638;50.050;21.124;2023-04-25T13:28:51;4.50;;;4.00;;
77524;SDS011;66638;50.050;21.124;2023-04-25T13:31:38;5.90;;;4.80;;
77524;SDS011;66638;50.050;21.124;2023-04-25T13:34:25;5.30;;;4.20;;
77524;SDS011;66638;50.050;21.124;2023-04-25T13:37:13;6.10;;;5.10;;
77524;SDS011;66638;50.050;21.124;2023-04-25T13:40:00;6.00;;;4.10;;
77524;SDS011;66638;50.050;21.124;2023-04-25T13:42:50;5.30;;;3.60;;
77524;SDS011;66638;50.050;21.124;2023-04-25T13:45:37;5.20;;;3.50;;
77524;SDS011;66638;50.050;21.124;2023-04-25T13:48:25;6.70;;;4.20;;
77524;SDS011;66638;50.050;21.124;2023-04-25T13:51:13;9.00;;;6.60;;
77524;SDS011;66638;50.050;21.124;2023-04-25T13:54:00;7.90;;;5.60;;
77524;SDS011;66638;50.050;21.124;2023-04-25T13:56:48;6.70;;;5.00;;
77524;SDS011;66638;50.050;21.124;2023-04-25T13:59:37;6.00;;;3.80;;
77524;SDS011;66638;50.050;21.124;2023-04-25T14:02:25;5.50;;;4.10;;
77524;SDS011;66638;50.050;21.124;2023-04-25T14:05:13;6.40;;;3.90;;
77524;SDS011;66638;50.050;21.124;2023-04-25T14:08:00;6.40;;;3.80;;
77524;SDS011;66638;50.050;21.124;2023-04-25T14:10:52;5.50;;;3.90;;
77524;SDS011;66638;50.050;21.124;2023-04-25T14:13:41;7.40;;;4.50;;
77524;SDS011;66638;50.050;21.124;2023-04-25T14:16:29;4.50;;;3.30;;
77524;SDS011;66638;50.050;21.124;2023-04-25T14:19:18;3.60;;;2.90;;
77524;SDS011;66638;50.050;21.124;2023-04-25T14:22:05;5.90;;;4.10;;
77524;SDS011;66638;50.050;21.124;2023-04-25T14:24:52;4.30;;;2.80;;
77524;SDS011;66638;50.050;21.124;2023-04-25T14:27:40;4.20;;;2.90;;
77524;SDS011;66638;50.050;21.124;2023-04-25T14:30:27;4.00;;;3.20;;
77524;SDS011;66638;50.050;21.124;2023-04-25T14:33:14;5.00;;;3.10;;
77524;SDS011;66638;50.050;21.124;2023-04-25T14:36:01;4.90;;;3.10;;
77524;SDS011;66638;50.050;21.124;2023-04-25T14:38:49;5.00;;;3.30;;
77524;SDS011;66638;50.050;21.124;2023-04-25T14:41:36;4.60;;;3.30;;
77524;SDS011;66638;50.050;21.124;2023-04-25T14:44:24;4.80;;;3.70;;
77524;SDS011;66638;50.050;21.124;2023-04-25T14:47:12;4.80;;;3.60;;
77524;SDS011;66638;50.050;21.124;2023-04-25T14:52:46;6.10;;;4.40;;
77524;SDS011;66638;50.050;21.124;2023-04-25T14:55:33;5.80;;;4.50;;
77524;SDS011;66638;50.050;21.124;2023-04-25T14:58:22;4.80;;;3.70;;
77524;SDS011;66638;50.050;21.124;2023-04-25T15:01:09;5.90;;;4.20;;
77524;SDS011;66638;50.050;21.124;2023-04-25T15:03:57;8.20;;;4.80;;
77524;SDS011;66638;50.050;21.124;2023-04-25T15:06:44;11.00;;;7.30;;
77524;SDS011;66638;50.050;21.124;2023-04-25T15:09:31;6.50;;;4.30;;
77524;SDS011;66638;50.050;21.124;2023-04-25T15:12:19;28.30;;;16.90;;
77524;SDS011;66638;50.050;21.124;2023-04-25T15:15:07;6.20;;;5.00;;
77524;SDS011;66638;50.050;21.124;2023-04-25T15:17:59;8.70;;;4.10;;
77524;SDS011;66638;50.050;21.124;2023-04-25T15:20:47;5.80;;;3.80;;
77524;SDS011;66638;50.050;21.124;2023-04-25T15:23:34;9.60;;;5.90;;
77524;SDS011;66638;50.050;21.124;2023-04-25T15:26:22;10.80;;;7.60;;
77524;SDS011;66638;50.050;21.124;2023-04-25T15:29:09;6.40;;;4.10;;
77524;SDS011;66638;50.050;21.124;2023-04-25T15:31:57;10.00;;;5.60;;
77524;SDS011;66638;50.050;21.124;2023-04-25T15:34:44;8.10;;;5.70;;
77524;SDS011;66638;50.050;21.124;2023-04-25T15:37:32;8.50;;;5.10;;
77524;SDS011;66638;50.050;21.124;2023-04-25T15:40:20;29.50;;;17.00;;
77524;SDS011;66638;50.050;21.124;2023-04-25T15:43:06;7.00;;;4.90;;
77524;SDS011;66638;50.050;21.124;2023-04-25T15:45:58;6.70;;;4.90;;
77524;SDS011;66638;50.050;21.124;2023-04-25T15:48:45;12.80;;;7.40;;
77524;SDS011;66638;50.050;21.124;2023-04-25T15:51:32;9.20;;;5.40;;
77524;SDS011;66638;50.050;21.124;2023-04-25T15:54:19;8.20;;;5.20;;
77524;SDS011;66638;50.050;21.124;2023-04-25T15:57:07;7.50;;;5.60;;
77524;SDS011;66638;50.050;21.124;2023-04-25T15:59:58;11.40;;;6.70;;
77524;SDS011;66638;50.050;21.124;2023-04-25T16:02:46;7.70;;;5.60;;
77524;SDS011;66638;50.050;21.124;2023-04-25T16:05:34;8.70;;;6.90;;
77524;SDS011;66638;50.050;21.124;2023-04-25T16:08:22;8.90;;;6.00;;
77524;SDS011;66638;50.050;21.124;2023-04-25T16:11:09;10.00;;;6.40;;
77524;SDS011;66638;50.050;21.124;2023-04-25T16:13:56;9.70;;;6.60;;
77524;SDS011;66638;50.050;21.124;2023-04-25T16:16:43;9.90;;;6.60;;
77524;SDS011;66638;50.050;21.124;2023-04-25T16:19:31;7.90;;;6.30;;
77524;SDS011;66638;50.050;21.124;2023-04-25T16:22:18;9.10;;;5.70;;
77524;SDS011;66638;50.050;21.124;2023-04-25T16:25:07;10.10;;;6.30;;
77524;SDS011;66638;50.050;21.124;2023-04-25T16:27:55;8.00;;;5.80;;
77524;SDS011;66638;50.050;21.124;2023-04-25T16:30:42;8.20;;;5.50;;
77524;SDS011;66638;50.050;21.124;2023-04-25T16:33:30;9.40;;;5.00;;
77524;SDS011;66638;50.050;21.124;2023-04-25T16:36:17;7.30;;;5.30;;
77524;SDS011;66638;50.050;21.124;2023-04-25T16:39:04;6.70;;;5.10;;
77524;SDS011;66638;50.050;21.124;2023-04-25T16:41:54;7.00;;;4.80;;
77524;SDS011;66638;50.050;21.124;2023-04-25T16:44:41;8.50;;;5.30;;
77524;SDS011;66638;50.050;21.124;2023-04-25T16:47:28;7.70;;;4.80;;
77524;SDS011;66638;50.050;21.124;2023-04-25T16:50:15;9.80;;;5.70;;
77524;SDS011;66638;50.050;21.124;2023-04-25T16:53:05;6.80;;;4.60;;
77524;SDS011;66638;50.050;21.124;2023-04-25T16:55:52;6.90;;;4.10;;
77524;SDS011;66638;50.050;21.124;2023-04-25T16:58:40;6.80;;;4.60;;
77524;SDS011;66638;50.050;21.124;2023-04-25T17:01:29;8.40;;;4.80;;
77524;SDS011;66638;50.050;21.124;2023-04-25T17:04:18;7.80;;;5.00;;